Time;durP1;ratioP1;P1;durP2;ratioP2;P2;SDS_P1;SDS_P2;PMS_P1;PMS_P2;Temp;Humidity;BMP_temperature;BMP_pressure;BME280_temperature;BME280_humidity;BME280_pressure;Samples;Min_cycle;Max_cycle;Signal;HPM_P1;HPM_P2
2023/05/12 04:02:34;;;;;;;4.23;3.93;;;14.90;81.70;;;;;;5207121;22;20487;-73
2023/05/12 04:05:01;;;;;;;5.00;4.60;;;14.80;81.60;;;;;;5033314;28;20452;-74
2023/05/12 04:07:27;;;;;;;4.60;4.20;;;14.80;81.60;;;;;;5033266;28;20451;-73
2023/05/12 04:09:54;;;;;;;4.37;3.97;;;14.80;81.70;;;;;;5033180;28;20443;-73
2023/05/12 04:12:21;;;;;;;5.13;4.70;;;14.80;81.60;;;;;;5032830;28;21088;-73
2023/05/12 04:14:47;;;;;;;4.50;4.10;;;14.80;81.70;;;;;;5033315;28;20509;-74
2023/05/12 04:17:14;;;;;;;4.83;4.43;;;14.80;81.80;;;;;;5057122;22;20999;-77
2023/05/12 04:19:42;;;;;;;4.10;3.70;;;14.80;81.70;;;;;;5033314;28;20466;-78
2023/05/12 04:22:09;;;;;;;4.77;4.37;;;14.70;81.80;;;;;;5034439;28;20498;-77
2023/05/12 04:24:37;;;;;;;4.93;4.53;;;14.80;81.80;;;;;;5037284;28;20443;-78
2023/05/12 04:27:03;;;;;;;4.17;3.87;;;14.80;81.80;;;;;;5037606;28;20482;-77
2023/05/12 04:29:30;;;;;;;4.83;4.43;;;14.80;81.90;;;;;;5038096;28;20443;-78
2023/05/12 04:31:58;;;;;;;4.50;4.10;;;14.80;81.90;;;;;;5037726;28;20471;-78
2023/05/12 04:34:25;;;;;;;4.87;4.47;;;14.80;81.80;;;;;;5038092;28;20458;-77
2023/05/12 04:36:53;;;;;;;4.50;4.20;;;14.80;81.70;;;;;;5037139;28;20471;-77
2023/05/12 04:39:20;;;;;;;4.90;4.50;;;14.80;81.80;;;;;;5037103;28;20487;-77
2023/05/12 04:41:46;;;;;;;4.50;4.10;;;14.80;81.90;;;;;;5037040;28;20458;-77
2023/05/12 04:44:13;;;;;;;4.47;4.07;;;14.80;81.80;;;;;;5037032;28;20796;-77
2023/05/12 04:46:40;;;;;;;5.10;4.53;;;14.80;81.50;;;;;;5036756;28;20529;-77
2023/05/12 04:49:06;;;;;;;4.77;4.37;;;14.80;81.50;;;;;;5036836;28;20791;-78
2023/05/12 04:51:33;;;;;;;3.87;3.57;;;14.70;81.50;;;;;;5036559;28;20447;-78
2023/05/12 04:54:01;;;;;;;5.07;4.67;;;14.80;81.50;;;;;;5037008;28;20448;-77
2023/05/12 04:56:27;;;;;;;4.60;4.20;;;14.70;81.50;;;;;;5036735;28;21045;-77
2023/05/12 04:58:54;;;;;;;4.30;3.90;;;14.80;81.40;;;;;;5036426;28;20865;-77
2023/05/12 05:01:21;;;;;;;4.10;3.80;;;14.80;81.30;;;;;;5036530;28;20466;-77
2023/05/12 05:03:47;;;;;;;3.83;3.53;;;14.90;81.30;;;;;;5036697;28;20493;-77
2023/05/12 05:06:14;;;;;;;4.70;4.30;;;14.90;81.30;;;;;;5036896;28;20529;-77
2023/05/12 05:08:41;;;;;;;4.13;3.83;;;14.90;81.20;;;;;;5036657;28;20518;-77
2023/05/12 05:11:09;;;;;;;4.80;4.40;;;14.90;81.00;;;;;;5036349;28;20872;-76
2023/05/12 05:13:35;;;;;;;3.53;3.23;;;14.70;81.50;;;;;;5036061;28;20490;-76
2023/05/12 05:16:02;;;;;;;4.23;3.83;;;14.80;81.50;;;;;;5036049;28;20533;-77
2023/05/12 05:18:29;;;;;;;3.97;3.57;;;14.80;81.30;;;;;;5036311;28;20451;-76
2023/05/12 05:20:56;;;;;;;3.93;3.60;;;14.80;81.40;;;;;;5036348;28;20447;-76
2023/05/12 05:23:22;;;;;;;5.93;4.20;;;14.80;81.40;;;;;;5036481;28;20451;-76
2023/05/12 05:25:50;;;;;;;4.20;3.80;;;14.90;81.20;;;;;;5036378;28;20530;-75
2023/05/12 05:28:18;;;;;;;4.60;4.20;;;14.90;81.00;;;;;;5036200;28;20491;-76
2023/05/12 05:30:44;;;;;;;4.20;3.80;;;14.90;80.90;;;;;;5036061;28;20504;-74
2023/05/12 05:33:11;;;;;;;4.17;3.77;;;14.70;81.30;;;;;;5035426;28;20479;-74
2023/05/12 05:35:38;;;;;;;4.83;4.37;;;14.60;81.70;;;;;;5035777;28;20866;-74
2023/05/12 05:38:05;;;;;;;4.30;3.90;;;14.60;81.20;;;;;;5035748;28;20443;-74
2023/05/12 05:40:31;;;;;;;3.40;3.10;;;14.50;82.10;;;;;;5035765;28;20455;-74
2023/05/12 05:42:58;;;;;;;3.97;3.67;;;14.60;82.00;;;;;;5035758;28;20497;-75
2023/05/12 05:45:26;;;;;;;3.70;3.40;;;14.70;81.90;;;;;;5035605;28;20848;-76
2023/05/12 05:47:53;;;;;;;3.90;3.60;;;14.70;81.90;;;;;;5035656;28;20454;-76
2023/05/12 05:50:19;;;;;;;4.10;3.80;;;14.60;81.80;;;;;;5035287;28;20967;-76
2023/05/12 05:52:46;;;;;;;3.63;3.33;;;14.50;82.50;;;;;;5035524;28;20483;-76
2023/05/12 05:55:13;;;;;;;3.90;3.50;;;14.60;81.90;;;;;;5035560;28;20482;-77
2023/05/12 05:57:40;;;;;;;4.53;4.13;;;14.60;82.10;;;;;;5035916;28;20448;-76
2023/05/12 06:00:08;;;;;;;4.50;4.10;;;14.30;82.70;;;;;;5036058;28;20451;-76
2023/05/12 06:02:36;;;;;;;4.03;3.63;;;14.50;82.40;;;;;;5035580;28;20479;-76
2023/05/12 06:05:03;;;;;;;4.50;4.10;;;14.70;82.00;;;;;;5035601;28;20862;-76
2023/05/12 06:07:30;;;;;;;4.07;3.77;;;14.90;81.60;;;;;;5035406;28;20513;-76
2023/05/12 06:09:56;;;;;;;4.40;4.00;;;14.70;81.20;;;;;;5035364;28;20518;-76
2023/05/12 06:12:23;;;;;;;4.03;3.60;;;14.50;82.10;;;;;;5035208;28;20479;-76
2023/05/12 06:14:50;;;;;;;3.37;3.07;;;14.40;81.40;;;;;;5035357;28;20444;-77
2023/05/12 06:17:16;;;;;;;3.50;3.20;;;14.40;82.10;;;;;;5035145;28;20479;-76
2023/05/12 06:19:46;;;;;;;4.10;3.70;;;14.60;81.50;;;;;;5035192;28;20509;-76
2023/05/12 06:22:13;;;;;;;3.33;2.80;;;14.50;81.00;;;;;;5035228;28;20451;-76
2023/05/12 06:24:39;;;;;;;2.73;2.53;;;14.60;80.90;;;;;;5035062;28;20448;-75
2023/05/12 06:27:07;;;;;;;3.00;2.70;;;14.80;80.20;;;;;;5034974;28;20467;-76
2023/05/12 06:29:33;;;;;;;3.00;2.23;;;14.90;79.60;;;;;;5034949;28;20448;-76
2023/05/12 06:32:00;;;;;;;3.13;2.53;;;14.70;79.70;;;;;;5034915;28;20501;-75
2023/05/12 06:34:28;;;;;;;4.13;2.80;;;14.80;79.90;;;;;;5034864;28;20447;-76
2023/05/12 06:36:56;;;;;;;3.50;2.63;;;14.80;79.90;;;;;;5034875;28;20475;-74
2023/05/12 06:39:22;;;;;;;3.00;2.50;;;14.80;80.00;;;;;;5034774;28;20451;-76
2023/05/12 06:41:49;;;;;;;3.23;2.70;;;15.00;79.40;;;;;;5034786;28;20450;-76
2023/05/12 06:44:15;;;;;;;2.67;2.30;;;15.00;79.20;;;;;;5034274;28;20858;-76
2023/05/12 06:46:42;;;;;;;3.90;2.60;;;14.80;79.10;;;;;;5034159;28;20478;-76
2023/05/12 06:49:09;;;;;;;2.77;2.20;;;14.60;80.00;;;;;;5034493;28;20452;-76
2023/05/12 06:51:35;;;;;;;3.23;2.50;;;14.60;80.20;;;;;;5034899;28;20521;-77
2023/05/12 06:54:03;;;;;;;3.20;2.90;;;14.80;79.90;;;;;;5034245;28;20533;-77
2023/05/12 06:56:30;;;;;;;2.37;2.17;;;14.90;80.30;;;;;;5034320;28;20468;-77
2023/05/12 06:58:59;;;;;;;2.90;2.17;;;14.80;79.90;;;;;;5034273;28;20479;-76
2023/05/12 07:01:26;;;;;;;2.77;2.37;;;15.10;79.40;;;;;;5034248;28;20941;-77
2023/05/12 07:03:53;;;;;;;3.17;2.60;;;15.10;79.90;;;;;;5034120;28;20447;-77
2023/05/12 07:06:20;;;;;;;2.40;1.80;;;15.20;79.80;;;;;;5034114;28;20546;-77
2023/05/12 07:08:47;;;;;;;5.53;2.77;;;15.40;79.30;;;;;;5034083;28;20459;-76
2023/05/12 07:11:18;;;;;;;2.70;2.30;;;15.60;78.70;;;;;;5034577;28;20450;-77
2023/05/12 07:13:45;;;;;;;2.70;2.30;;;15.40;78.40;;;;;;5033731;28;20468;-77
2023/05/12 07:16:12;;;;;;;2.93;2.53;;;15.30;78.40;;;;;;5033797;28;20549;-77
2023/05/12 07:18:39;;;;;;;2.70;2.40;;;15.00;78.80;;;;;;5034565;28;20447;-77
2023/05/12 07:21:05;;;;;;;2.70;2.37;;;15.10;79.30;;;;;;5034327;28;20456;-76
2023/05/12 07:23:33;;;;;;;2.70;2.50;;;15.30;79.60;;;;;;5034269;28;20482;-77
2023/05/12 07:26:01;;;;;;;2.93;2.73;;;15.40;79.20;;;;;;5034175;28;20473;-76
2023/05/12 07:28:31;;;;;;;2.63;2.40;;;15.30;79.80;;;;;;5033980;28;20451;-76
2023/05/12 07:30:57;;;;;;;2.73;2.53;;;15.20;80.90;;;;;;5034142;28;20509;-76
2023/05/12 07:33:24;;;;;;;2.60;2.37;;;15.40;80.40;;;;;;5033719;28;20549;-76
2023/05/12 07:35:51;;;;;;;2.70;2.30;;;15.20;80.50;;;;;;5033729;28;20467;-76
2023/05/12 07:38:17;;;;;;;2.97;2.70;;;15.00;80.20;;;;;;5033857;28;20452;-76
2023/05/12 07:40:44;;;;;;;2.70;2.50;;;14.90;80.70;;;;;;5033659;28;20448;-76
2023/05/12 07:43:11;;;;;;;3.00;2.70;;;14.80;81.00;;;;;;5034065;28;20482;-76
2023/05/12 07:45:39;;;;;;;2.80;2.60;;;14.80;81.60;;;;;;5033497;28;20467;-76
2023/05/12 07:48:06;;;;;;;2.43;2.10;;;15.00;82.20;;;;;;5033944;28;20498;-77
2023/05/12 07:50:32;;;;;;;2.80;2.50;;;15.00;81.10;;;;;;5033747;28;20447;-76
2023/05/12 07:52:59;;;;;;;2.53;2.20;;;15.20;81.00;;;;;;5033637;28;20481;-76
2023/05/12 07:55:26;;;;;;;2.93;2.63;;;15.10;79.90;;;;;;5033530;28;20525;-76
2023/05/12 07:57:52;;;;;;;2.37;2.17;;;15.30;80.80;;;;;;5033587;28;20452;-76
2023/05/12 08:00:20;;;;;;;2.50;2.27;;;15.50;80.30;;;;;;5033442;28;20447;-74
2023/05/12 08:02:47;;;;;;;2.30;2.00;;;15.80;78.40;;;;;;5033186;28;20815;-76
2023/05/12 08:05:14;;;;;;;2.87;2.47;;;15.80;77.60;;;;;;5033156;28;20506;-76
2023/05/12 08:07:42;;;;;;;2.20;2.00;;;15.80;77.00;;;;;;5033230;28;20454;-77
2023/05/12 08:10:10;;;;;;;2.60;2.13;;;15.70;76.70;;;;;;5033334;28;20451;-75
2023/05/12 08:12:36;;;;;;;2.30;1.87;;;15.70;78.20;;;;;;5033149;28;20451;-77
2023/05/12 08:15:03;;;;;;;2.40;2.00;;;16.00;77.20;;;;;;5033078;28;20521;-76
2023/05/12 08:17:30;;;;;;;3.07;2.57;;;15.70;75.70;;;;;;5033298;28;20854;-77
2023/05/12 08:19:58;;;;;;;2.10;1.60;;;15.60;78.60;;;;;;5032962;28;20502;-76
2023/05/12 08:22:25;;;;;;;2.20;1.73;;;15.90;77.70;;;;;;5032840;28;20505;-76
2023/05/12 08:24:52;;;;;;;2.10;1.63;;;16.30;77.40;;;;;;5033426;28;20443;-76
2023/05/12 08:27:19;;;;;;;2.77;1.63;;;16.20;77.40;;;;;;5033168;28;20550;-76
2023/05/12 08:29:46;;;;;;;2.27;1.93;;;16.40;76.60;;;;;;5033163;28;20482;-77
2023/05/12 08:32:13;;;;;;;2.53;1.93;;;16.60;76.00;;;;;;5033180;28;20877;-76
2023/05/12 08:34:40;;;;;;;2.07;1.70;;;16.40;75.30;;;;;;5033364;28;20490;-76
2023/05/12 08:37:08;;;;;;;2.00;1.50;;;16.20;74.40;;;;;;5033251;28;20471;-76
2023/05/12 08:39:35;;;;;;;2.37;1.50;;;15.80;76.20;;;;;;5033349;28;20478;-77
2023/05/12 08:42:25;;;;;;;2.60;1.23;;;16.00;75.70;;;;;;5033359;28;20443;-76
2023/05/12 08:44:52;;;;;;;2.00;1.30;;;16.20;75.70;;;;;;5033250;28;20494;-77
2023/05/12 08:47:23;;;;;;;2.53;1.53;;;16.50;75.30;;;;;;5032873;28;20537;-75
2023/05/12 08:49:59;;;;;;;2.00;1.30;;;16.50;74.10;;;;;;5033140;28;20599;-77
2023/05/12 08:52:29;;;;;;;2.00;1.40;;;16.70;72.90;;;;;;5033320;28;20519;-76
2023/05/12 08:54:56;;;;;;;2.77;1.50;;;16.50;73.80;;;;;;5033128;28;20533;-74
2023/05/12 08:57:23;;;;;;;2.07;1.53;;;16.60;74.80;;;;;;5032796;28;21024;-77
2023/05/12 08:59:52;;;;;;;1.90;1.23;;;16.50;74.30;;;;;;5032905;28;20505;-77
2023/05/12 09:02:21;;;;;;;1.80;1.10;;;16.50;74.80;;;;;;5032412;28;20878;-76
2023/05/12 09:04:48;;;;;;;2.10;1.50;;;16.20;74.70;;;;;;5032733;28;20530;-77
2023/05/12 09:07:15;;;;;;;2.60;1.70;;;16.20;76.20;;;;;;5032691;28;20525;-77
2023/05/12 09:09:46;;;;;;;2.07;1.47;;;16.60;76.40;;;;;;5037345;28;20443;-77
2023/05/12 09:12:18;;;;;;;2.03;1.40;;;16.60;74.60;;;;;;5036338;28;20451;-76
2023/05/12 09:14:45;;;;;;;2.40;1.60;;;16.50;74.30;;;;;;5036485;28;20469;-77
2023/05/12 09:17:12;;;;;;;1.83;1.33;;;16.40;75.70;;;;;;5035791;28;20563;-76
2023/05/12 09:19:39;;;;;;;2.00;1.47;;;16.50;75.40;;;;;;5036164;28;20443;-77
2023/05/12 09:22:08;;;;;;;1.80;1.30;;;16.20;75.70;;;;;;5036080;28;20880;-77
2023/05/12 09:24:36;;;;;;;2.67;1.80;;;16.20;76.20;;;;;;5036019;28;20455;-73
2023/05/12 09:27:05;;;;;;;2.00;1.30;;;16.30;76.10;;;;;;5036022;28;20908;-74
2023/05/12 09:29:33;;;;;;;1.90;1.30;;;16.30;76.70;;;;;;5035923;28;20448;-76
2023/05/12 09:32:02;;;;;;;2.47;1.83;;;16.50;74.90;;;;;;5036203;28;20444;-75
2023/05/12 09:34:29;;;;;;;2.50;1.60;;;16.90;74.30;;;;;;5035855;28;20601;-77
2023/05/12 09:36:56;;;;;;;2.20;1.73;;;17.30;73.70;;;;;;5035788;28;20464;-76
2023/05/12 09:39:23;;;;;;;3.30;1.90;;;17.60;72.60;;;;;;5035841;28;20555;-77
2023/05/12 09:41:51;;;;;;;2.07;1.53;;;17.70;73.40;;;;;;5035941;28;20523;-77
2023/05/12 09:44:19;;;;;;;2.10;1.60;;;17.70;71.00;;;;;;5035704;28;20534;-76
2023/05/12 09:46:46;;;;;;;2.03;1.37;;;17.70;72.20;;;;;;5035487;28;20463;-76
2023/05/12 09:49:13;;;;;;;2.23;1.77;;;17.90;72.40;;;;;;5035803;28;20863;-77
2023/05/12 09:51:40;;;;;;;2.10;1.50;;;17.90;70.50;;;;;;5035948;28;20451;-77
2023/05/12 09:54:07;;;;;;;2.00;1.30;;;18.00;71.40;;;;;;5035824;28;20574;-76
2023/05/12 09:56:38;;;;;;;2.93;1.60;;;18.20;70.30;;;;;;5035403;28;20479;-76
2023/05/12 09:59:05;;;;;;;2.90;1.50;;;18.20;71.70;;;;;;5035586;28;20796;-77
2023/05/12 10:01:34;;;;;;;2.33;1.43;;;18.10;71.10;;;;;;5035393;28;20451;-76
2023/05/12 10:04:02;;;;;;;2.27;1.60;;;18.20;70.50;;;;;;5035347;28;20443;-77
2023/05/12 10:06:32;;;;;;;2.27;1.63;;;18.40;70.10;;;;;;5035208;28;20463;-77
2023/05/12 10:09:08;;;;;;;1.80;1.10;;;18.30;70.30;;;;;;5035007;28;20857;-76
2023/05/12 10:11:35;;;;;;;1.80;1.17;;;17.80;69.50;;;;;;5034926;28;20974;-77
2023/05/12 10:14:02;;;;;;;2.10;1.20;;;17.20;70.20;;;;;;5035200;28;20532;-77
2023/05/12 10:16:29;;;;;;;1.90;1.17;;;17.10;71.80;;;;;;5151755;22;20913;-74
2023/05/12 10:18:58;;;;;;;1.80;1.20;;;17.40;72.10;;;;;;5034578;28;20444;-74
2023/05/12 10:21:25;;;;;;;1.97;1.00;;;17.60;71.70;;;;;;5034104;28;20825;-74
2023/05/12 10:23:54;;;;;;;1.93;1.37;;;17.70;70.80;;;;;;5034882;28;20518;-74
2023/05/12 10:26:22;;;;;;;1.80;1.00;;;17.80;71.80;;;;;;5034837;28;20471;-74
2023/05/12 10:28:49;;;;;;;1.70;1.00;;;18.00;70.60;;;;;;5034483;28;20941;-74
2023/05/12 10:31:16;;;;;;;1.90;1.20;;;18.10;69.60;;;;;;5034419;28;20844;-74
2023/05/12 10:33:43;;;;;;;1.90;1.20;;;18.20;69.40;;;;;;5034671;28;20479;-74
2023/05/12 10:36:20;;;;;;;1.63;1.03;;;18.30;70.00;;;;;;5034577;28;20463;-74
2023/05/12 10:38:48;;;;;;;2.10;1.20;;;17.90;68.70;;;;;;5034629;28;20447;-74
2023/05/12 10:41:16;;;;;;;1.87;1.20;;;17.60;70.50;;;;;;5034931;28;20568;-74
2023/05/12 10:43:44;;;;;;;4.07;1.53;;;17.70;72.00;;;;;;5034608;28;20881;-74
2023/05/12 10:46:16;;;;;;;2.87;1.50;;;17.80;71.60;;;;;;5034425;28;20825;-74
2023/05/12 10:48:58;;;;;;;2.33;1.30;;;17.90;70.30;;;;;;5034702;28;20494;-74
2023/05/12 10:51:28;;;;;;;2.70;1.50;;;17.60;71.00;;;;;;5034443;28;20443;-74
2023/05/12 10:53:58;;;;;;;1.70;1.00;;;17.30;71.10;;;;;;5034227;28;20574;-74
2023/05/12 10:56:27;;;;;;;3.00;1.50;;;17.40;71.20;;;;;;5034003;28;21000;-74
2023/05/12 10:59:07;;;;;;;3.10;1.60;;;17.40;72.00;;;;;;5034267;28;20518;-73
2023/05/12 11:01:34;;;;;;;1.90;1.27;;;17.40;71.90;;;;;;5034536;28;20479;-73
2023/05/12 11:04:10;;;;;;;1.83;1.20;;;17.50;71.60;;;;;;5034962;28;20949;-74
2023/05/12 11:06:39;;;;;;;2.83;1.80;;;17.70;70.40;;;;;;5036087;28;20479;-73
2023/05/12 11:09:06;;;;;;;2.30;1.40;;;17.40;70.60;;;;;;5035407;28;20463;-74
2023/05/12 11:11:33;;;;;;;1.70;1.10;;;17.50;71.10;;;;;;5035125;28;20448;-75
2023/05/12 11:14:01;;;;;;;1.90;1.30;;;17.40;71.60;;;;;;5034874;28;20483;-74
2023/05/12 11:16:27;;;;;;;2.30;1.70;;;17.50;71.70;;;;;;5034994;28;20479;-74
2023/05/12 11:19:01;;;;;;;1.97;1.50;;;17.60;70.90;;;;;;5034839;28;20498;-72
2023/05/12 11:21:29;;;;;;;2.20;1.50;;;17.50;71.40;;;;;;5034940;28;20555;-72
2023/05/12 11:23:57;;;;;;;2.73;1.50;;;17.20;72.50;;;;;;5034121;28;20442;-73
2023/05/12 11:26:24;;;;;;;2.13;1.70;;;17.10;73.40;;;;;;5034718;28;20460;-73
2023/05/12 11:28:51;;;;;;;3.90;1.80;;;16.90;74.20;;;;;;5034996;28;20446;-71
2023/05/12 11:31:19;;;;;;;2.63;2.40;;;16.70;75.20;;;;;;5034298;28;20505;-73
2023/05/12 11:33:45;;;;;;;2.30;1.77;;;16.70;75.40;;;;;;5034731;28;20448;-73
2023/05/12 11:36:15;;;;;;;2.77;1.80;;;16.50;76.20;;;;;;5035650;28;20467;-73
2023/05/12 11:38:49;;;;;;;4.37;1.70;;;16.50;77.20;;;;;;5034314;28;20966;-73
2023/05/12 11:41:23;;;;;;;2.47;1.90;;;16.40;77.60;;;;;;5033975;28;20522;-73
2023/05/12 11:43:50;;;;;;;2.30;2.10;;;16.40;77.40;;;;;;5036390;28;20451;-74
2023/05/12 11:46:25;;;;;;;3.63;2.30;;;16.10;78.20;;;;;;5035218;28;21015;-74
2023/05/12 11:48:55;;;;;;;2.80;2.30;;;15.80;81.40;;;;;;5036120;28;20455;-73
2023/05/12 11:51:23;;;;;;;3.47;2.17;;;15.60;83.10;;;;;;5035270;28;20435;-72
2023/05/12 11:53:50;;;;;;;2.50;2.10;;;15.50;83.90;;;;;;5034476;28;20444;-73
2023/05/12 11:56:21;;;;;;;3.07;2.20;;;15.30;85.00;;;;;;5034230;28;20459;-73
2023/05/12 11:58:57;;;;;;;2.50;2.27;;;15.20;86.10;;;;;;5034617;28;20506;-73
2023/05/12 12:01:24;;;;;;;2.40;2.10;;;15.30;86.80;;;;;;5034462;28;20436;-72
2023/05/12 12:03:52;;;;;;;2.30;1.90;;;15.50;86.70;;;;;;5034166;28;20447;-73
2023/05/12 12:06:21;;;;;;;2.60;1.87;;;15.80;85.80;;;;;;5034003;28;20463;-73
2023/05/12 12:08:52;;;;;;;2.20;1.50;;;15.90;85.60;;;;;;5034057;28;20462;-73
2023/05/12 12:11:20;;;;;;;2.60;1.30;;;15.80;84.40;;;;;;5033866;28;20456;-73
2023/05/12 12:13:55;;;;;;;1.90;1.20;;;15.90;84.30;;;;;;5034254;28;20455;-74
2023/05/12 12:16:24;;;;;;;3.90;1.30;;;16.20;83.50;;;;;;5033937;28;20490;-74
2023/05/12 12:18:51;;;;;;;2.57;1.23;;;16.00;83.20;;;;;;5034428;28;20948;-75
2023/05/12 12:21:18;;;;;;;1.60;0.90;;;16.10;82.30;;;;;;5034504;28;20455;-75
2023/05/12 12:23:44;;;;;;;2.07;0.90;;;16.20;81.00;;;;;;5033984;28;20475;-75
2023/05/12 12:26:13;;;;;;;1.90;0.97;;;16.20;80.60;;;;;;5034630;28;20475;-74
2023/05/12 12:28:39;;;;;;;1.60;0.87;;;16.20;80.60;;;;;;5034606;28;20455;-75
2023/05/12 12:31:06;;;;;;;2.50;1.20;;;16.50;80.50;;;;;;5034800;28;20527;-74
2023/05/12 12:33:34;;;;;;;2.43;1.03;;;16.30;79.70;;;;;;5034587;28;20459;-74
2023/05/12 12:36:01;;;;;;;1.60;0.80;;;16.60;80.00;;;;;;5034302;28;20509;-75
2023/05/12 12:38:28;;;;;;;1.80;0.90;;;16.70;79.70;;;;;;5033761;28;20976;-74
2023/05/12 12:40:55;;;;;;;1.70;0.93;;;16.90;79.90;;;;;;5034341;28;20451;-74
2023/05/12 12:43:21;;;;;;;2.47;1.30;;;17.10;79.60;;;;;;5035654;28;20947;-74
2023/05/12 12:45:48;;;;;;;3.47;1.00;;;17.40;79.00;;;;;;5037960;28;20982;-74
2023/05/12 12:48:15;;;;;;;1.70;1.00;;;17.60;78.40;;;;;;5038298;28;20451;-74
2023/05/12 12:50:43;;;;;;;2.00;1.00;;;17.70;78.50;;;;;;5038277;28;20458;-75
2023/05/12 12:53:10;;;;;;;1.80;1.07;;;17.90;78.80;;;;;;5037741;28;20928;-75
2023/05/12 12:55:36;;;;;;;2.67;1.40;;;18.10;77.10;;;;;;5037775;28;20487;-75
2023/05/12 12:58:03;;;;;;;2.50;1.63;;;18.10;77.10;;;;;;5037750;28;20945;-74
2023/05/12 13:00:30;;;;;;;3.40;1.70;;;18.10;77.20;;;;;;5038005;28;20448;-74
2023/05/12 13:02:57;;;;;;;1.93;1.23;;;18.30;77.60;;;;;;5037771;28;20949;-74
2023/05/12 13:05:23;;;;;;;2.00;1.33;;;18.50;77.40;;;;;;5038745;28;20439;-75
2023/05/12 13:07:52;;;;;;;2.30;1.67;;;18.60;77.20;;;;;;5037421;28;20568;-73
2023/05/12 13:10:19;;;;;;;2.40;1.57;;;18.80;75.80;;;;;;5037499;28;20459;-75
2023/05/12 13:12:45;;;;;;;1.90;1.30;;;18.80;76.00;;;;;;5038356;28;20483;-74
2023/05/12 13:15:12;;;;;;;3.20;1.70;;;18.60;75.50;;;;;;5037234;28;21030;-73
2023/05/12 13:17:39;;;;;;;2.10;1.60;;;18.50;76.50;;;;;;5037377;28;21023;-72
2023/05/12 13:20:07;;;;;;;2.10;1.43;;;18.30;76.30;;;;;;5038208;28;20840;-73
2023/05/12 13:22:34;;;;;;;2.43;1.20;;;18.20;76.70;;;;;;5037531;28;20483;-73
2023/05/12 13:25:06;;;;;;;1.90;1.10;;;18.20;76.30;;;;;;5037560;28;20458;-74
2023/05/12 13:27:33;;;;;;;2.90;1.10;;;17.90;75.90;;;;;;5038054;28;20478;-74
2023/05/12 13:29:59;;;;;;;1.80;1.00;;;17.60;72.40;;;;;;5037733;28;20447;-74
2023/05/12 13:32:29;;;;;;;1.70;1.10;;;17.50;73.20;;;;;;5037480;28;20447;-74
2023/05/12 13:34:56;;;;;;;2.67;1.43;;;17.60;73.00;;;;;;5039105;28;20558;-77
2023/05/12 13:37:24;;;;;;;2.50;1.20;;;17.60;73.70;;;;;;5039520;28;20467;-74
2023/05/12 13:39:51;;;;;;;2.43;1.53;;;17.70;73.80;;;;;;5039118;28;20823;-74
2023/05/12 13:42:21;;;;;;;2.37;1.10;;;17.60;73.40;;;;;;5038825;28;20863;-75
2023/05/12 13:44:49;;;;;;;1.87;1.20;;;17.50;75.90;;;;;;5038227;28;20463;-74
2023/05/12 13:47:16;;;;;;;3.80;1.30;;;17.20;75.00;;;;;;5038868;28;20486;-75
2023/05/12 13:49:42;;;;;;;2.17;1.20;;;17.00;75.40;;;;;;5037228;28;20527;-75
2023/05/12 13:52:11;;;;;;;1.93;1.30;;;17.00;76.70;;;;;;5037584;28;20467;-74
2023/05/12 13:54:41;;;;;;;2.10;1.33;;;17.00;76.20;;;;;;5037013;28;20480;-75
2023/05/12 13:57:08;;;;;;;3.20;1.50;;;17.00;76.00;;;;;;5038254;28;20984;-74
2023/05/12 13:59:41;;;;;;;2.17;1.70;;;17.00;75.80;;;;;;5039185;28;20569;-75
2023/05/12 14:02:13;;;;;;;2.50;1.23;;;17.00;74.60;;;;;;5040080;28;20409;-74
2023/05/12 14:04:44;;;;;;;4.93;1.93;;;17.10;75.40;;;;;;5037399;28;20478;-74
2023/05/12 14:07:11;;;;;;;3.43;1.53;;;16.90;75.00;;;;;;5037446;28;20883;-76
2023/05/12 14:09:44;;;;;;;2.50;1.80;;;16.70;76.10;;;;;;5037295;28;20533;-74
2023/05/12 14:12:11;;;;;;;2.40;1.67;;;16.70;76.30;;;;;;5039747;28;20431;-75
2023/05/12 14:14:39;;;;;;;2.53;1.33;;;16.60;76.90;;;;;;5039639;28;20452;-75
2023/05/12 14:17:06;;;;;;;2.30;1.50;;;16.60;76.80;;;;;;5037797;28;20486;-72
2023/05/12 14:19:34;;;;;;;3.00;2.10;;;16.80;76.80;;;;;;5037547;28;20443;-73
2023/05/12 14:22:01;;;;;;;2.30;2.00;;;16.90;76.50;;;;;;5036031;28;20456;-73
2023/05/12 14:24:27;;;;;;;2.60;1.80;;;16.90;77.30;;;;;;5035171;28;20459;-73
2023/05/12 14:26:54;;;;;;;2.63;2.03;;;16.90;76.70;;;;;;5035004;28;20464;-73
2023/05/12 14:29:22;;;;;;;2.40;1.73;;;17.00;76.30;;;;;;5035081;28;20450;-73
2023/05/12 14:31:50;;;;;;;2.53;1.90;;;16.90;76.20;;;;;;5034931;28;20447;-72
2023/05/12 14:34:18;;;;;;;2.50;2.00;;;17.10;76.30;;;;;;5034534;28;20862;-73
2023/05/12 14:36:44;;;;;;;2.30;1.83;;;17.10;76.00;;;;;;5034736;28;20519;-73
2023/05/12 14:39:11;;;;;;;2.70;1.77;;;17.20;76.30;;;;;;5034836;28;20497;-72
2023/05/12 14:41:38;;;;;;;2.20;1.70;;;17.00;75.50;;;;;;5034751;28;20459;-72
2023/05/12 14:44:05;;;;;;;2.83;1.70;;;17.20;76.50;;;;;;5034286;28;20447;-72
2023/05/12 14:46:32;;;;;;;2.20;1.77;;;17.60;76.60;;;;;;5034479;28;20470;-72
2023/05/12 14:49:00;;;;;;;3.33;2.63;;;17.70;74.80;;;;;;5035091;28;20447;-73
2023/05/12 14:51:27;;;;;;;2.80;2.40;;;17.80;74.80;;;;;;5034180;28;20995;-72
2023/05/12 14:53:53;;;;;;;2.30;2.10;;;17.80;75.40;;;;;;5034488;28;20501;-73
2023/05/12 14:56:20;;;;;;;4.27;2.53;;;17.80;75.30;;;;;;5034224;28;20483;-73
2023/05/12 14:58:47;;;;;;;2.33;1.93;;;17.70;74.10;;;;;;5034358;28;20451;-73
2023/05/12 15:01:15;;;;;;;2.57;2.27;;;17.70;74.60;;;;;;5034253;28;20979;-73
2023/05/12 15:03:42;;;;;;;2.60;2.20;;;17.60;75.10;;;;;;5034331;28;20455;-71
2023/05/12 15:06:10;;;;;;;2.90;2.17;;;17.40;75.00;;;;;;5033243;28;20559;-73
2023/05/12 15:08:37;;;;;;;2.97;1.83;;;17.10;74.30;;;;;;5034137;28;20493;-73
2023/05/12 15:11:03;;;;;;;2.20;1.90;;;16.70;75.60;;;;;;5034083;28;20458;-72
2023/05/12 15:13:30;;;;;;;2.30;2.03;;;16.70;76.40;;;;;;5034110;28;20443;-73
2023/05/12 15:15:57;;;;;;;3.03;2.33;;;16.60;77.00;;;;;;5033740;28;20483;-73
2023/05/12 15:18:24;;;;;;;2.60;1.90;;;16.70;77.00;;;;;;5034070;28;20432;-73
2023/05/12 15:20:50;;;;;;;4.57;2.13;;;16.70;76.90;;;;;;5033961;28;20456;-73
2023/05/12 15:23:18;;;;;;;2.50;2.13;;;16.60;77.20;;;;;;5033900;28;20444;-73
2023/05/12 15:25:45;;;;;;;2.87;2.57;;;16.60;77.20;;;;;;5033796;28;20515;-73
2023/05/12 15:28:12;;;;;;;2.30;2.07;;;16.60;77.50;;;;;;5033888;28;20501;-73
2023/05/12 15:30:38;;;;;;;3.53;2.43;;;16.30;78.40;;;;;;5033949;28;20866;-73
2023/05/12 15:33:05;;;;;;;2.73;2.13;;;16.10;78.70;;;;;;5033697;28;20805;-73
2023/05/12 15:35:32;;;;;;;2.20;1.70;;;16.00;77.40;;;;;;5033810;28;20537;-72
2023/05/12 15:38:00;;;;;;;3.00;1.90;;;15.90;76.50;;;;;;5033744;28;20486;-73
2023/05/12 15:40:29;;;;;;;2.50;1.53;;;15.90;76.90;;;;;;5034356;28;20447;-73
2023/05/12 15:42:56;;;;;;;2.80;1.70;;;15.70;76.60;;;;;;5034039;28;20490;-73
2023/05/12 15:45:22;;;;;;;1.90;1.40;;;15.60;76.10;;;;;;5033244;28;20944;-73
2023/05/12 15:47:49;;;;;;;1.90;1.40;;;15.70;75.10;;;;;;5034178;28;20467;-73
2023/05/12 15:50:18;;;;;;;2.17;1.97;;;15.70;75.60;;;;;;5033766;28;20443;-72
2023/05/12 15:52:45;;;;;;;2.10;1.60;;;15.80;75.90;;;;;;5033560;28;20531;-73
2023/05/12 15:55:12;;;;;;;2.00;1.50;;;15.80;75.50;;;;;;5033457;28;20542;-73
2023/05/12 15:57:40;;;;;;;2.03;1.67;;;16.00;76.30;;;;;;5033268;28;20525;-73
2023/05/12 16:00:08;;;;;;;2.13;1.60;;;16.30;75.40;;;;;;5033362;28;20470;-73
2023/05/12 16:02:34;;;;;;;2.10;1.60;;;16.30;75.10;;;;;;5033330;28;20444;-73
2023/05/12 16:05:01;;;;;;;2.20;1.73;;;16.40;75.50;;;;;;5033358;28;20538;-73
2023/05/12 16:07:29;;;;;;;4.57;1.90;;;16.60;75.70;;;;;;5033249;28;20467;-73
2023/05/12 16:09:57;;;;;;;2.40;1.70;;;16.90;75.10;;;;;;5033681;28;20458;-73
2023/05/12 16:12:24;;;;;;;2.67;1.87;;;17.00;74.50;;;;;;5033037;28;20547;-73
2023/05/12 16:14:52;;;;;;;2.43;1.93;;;17.00;73.40;;;;;;5033172;28;20440;-73
2023/05/12 16:17:20;;;;;;;2.00;1.50;;;17.10;73.70;;;;;;5057910;22;20499;-77
2023/05/12 16:19:47;;;;;;;2.50;2.00;;;17.00;72.90;;;;;;5038421;28;20864;-76
2023/05/12 16:22:14;;;;;;;2.50;1.70;;;17.00;74.00;;;;;;5038188;28;20498;-78
2023/05/12 16:24:41;;;;;;;2.10;1.73;;;17.10;74.00;;;;;;5037749;28;20447;-77
2023/05/12 16:27:07;;;;;;;2.70;1.77;;;17.10;73.40;;;;;;5037138;28;21054;-77
2023/05/12 16:29:34;;;;;;;2.10;1.40;;;17.20;73.20;;;;;;5037192;28;20863;-75
2023/05/12 16:32:02;;;;;;;2.17;1.73;;;17.30;72.90;;;;;;5036850;28;20939;-77
2023/05/12 16:34:28;;;;;;;3.80;1.70;;;17.20;72.10;;;;;;5037178;28;20497;-77
2023/05/12 16:36:55;;;;;;;2.60;1.40;;;17.20;72.90;;;;;;5037087;28;20487;-77
2023/05/12 16:39:22;;;;;;;2.07;1.70;;;17.10;72.90;;;;;;5037020;28;20447;-77
2023/05/12 16:41:48;;;;;;;2.33;1.40;;;17.20;72.80;;;;;;5037149;28;20451;-77
2023/05/12 16:44:15;;;;;;;2.33;1.70;;;17.30;72.80;;;;;;5037006;28;20447;-77
2023/05/12 16:46:42;;;;;;;2.30;1.53;;;17.20;72.80;;;;;;5037097;28;20469;-77
2023/05/12 16:49:10;;;;;;;3.40;1.87;;;17.30;73.30;;;;;;5037125;28;20495;-77
2023/05/12 16:51:37;;;;;;;2.00;1.63;;;17.30;73.30;;;;;;5036964;28;20448;-77